Time;durP1;ratioP1;P1;durP2;ratioP2;P2;SDS_P1;SDS_P2;PMS_P1;PMS_P2;Temp;Humidity;BMP_temperature;BMP_pressure;BME280_temperature;BME280_humidity;BME280_pressure;Samples;Min_cycle;Max_cycle;Signal;HPM_P1;HPM_P2
2023/01/09 00:00:02;;;;;;;2.35;1.73;;;;;;;;;;5044627;28;20048;-86
2023/01/09 00:02:31;;;;;;;2.47;1.67;;;;;;;;;;5036564;28;20460;-86
2023/01/09 00:04:59;;;;;;;2.47;1.42;;;;;;;;;;5034239;28;20049;-86
2023/01/09 00:07:29;;;;;;;1.67;1.17;;;;;;;;;;5053659;28;20041;-86
2023/01/09 00:09:59;;;;;;;2.88;1.20;;;;;;;;;;5048466;28;20171;-87
2023/01/09 00:12:28;;;;;;;4.78;1.80;;;;;;;;;;5050774;28;20045;-86
2023/01/09 00:14:56;;;;;;;2.05;1.30;;;;;;;;;;5038406;28;20049;-86
2023/01/09 00:17:24;;;;;;;2.95;2.05;;;;;;;;;;5044318;28;20075;-86
2023/01/09 00:19:52;;;;;;;2.95;1.52;;;;;;;;;;5039456;28;20414;-87
2023/01/09 00:22:21;;;;;;;1.02;0.77;;;;;;;;;;5046948;28;20049;-86
2023/01/09 00:24:50;;;;;;;3.35;1.77;;;;;;;;;;5051293;28;20048;-86
2023/01/09 00:27:19;;;;;;;1.77;1.08;;;;;;;;;;5041748;28;20052;-87
2023/01/09 00:29:48;;;;;;;5.38;1.13;;;;;;;;;;5058353;28;20067;-86
2023/01/09 00:32:16;;;;;;;1.25;1.15;;;;;;;;;;5043882;28;20051;-87
2023/01/09 00:34:44;;;;;;;2.05;1.17;;;;;;;;;;5041555;28;20057;-86
2023/01/09 00:37:13;;;;;;;2.03;1.10;;;;;;;;;;5032008;28;20049;-86
2023/01/09 00:39:42;;;;;;;9.18;1.60;;;;;;;;;;5049432;28;20049;-86
2023/01/09 00:42:13;;;;;;;1.38;0.75;;;;;;;;;;5048387;28;20041;-86
2023/01/09 00:44:43;;;;;;;1.70;1.33;;;;;;;;;;5050858;28;20501;-86
2023/01/09 00:47:15;;;;;;;2.10;1.10;;;;;;;;;;5041285;28;20053;-87
2023/01/09 00:49:43;;;;;;;1.27;1.17;;;;;;;;;;5034303;28;20067;-87
2023/01/09 00:52:12;;;;;;;2.47;1.23;;;;;;;;;;5043415;28;20485;-87
2023/01/09 00:54:41;;;;;;;1.88;1.67;;;;;;;;;;5035391;28;20060;-87
2023/01/09 00:57:12;;;;;;;1.17;1.08;;;;;;;;;;5042120;28;20045;-87
2023/01/09 00:59:40;;;;;;;2.72;1.75;;;;;;;;;;5030018;28;20049;-86
2023/01/09 01:02:09;;;;;;;2.83;1.70;;;;;;;;;;5041768;28;20051;-87
2023/01/09 01:07:40;;;;;;;3.00;1.27;;;;;;;;;;5043997;28;20060;-87
2023/01/09 01:10:10;;;;;;;2.53;1.20;;;;;;;;;;5050048;28;20059;-86
2023/01/09 01:12:40;;;;;;;3.35;1.42;;;;;;;;;;5043549;28;20044;-86
2023/01/09 01:15:09;;;;;;;2.00;1.77;;;;;;;;;;5045125;28;20045;-86
2023/01/09 01:17:38;;;;;;;4.25;2.03;;;;;;;;;;5049846;28;20045;-87
2023/01/09 01:20:08;;;;;;;3.95;1.75;;;;;;;;;;5039774;28;20405;-86
2023/01/09 01:22:36;;;;;;;1.48;1.25;;;;;;;;;;5046101;28;20053;-86
2023/01/09 01:25:05;;;;;;;2.05;1.58;;;;;;;;;;5049516;28;20043;-86
2023/01/09 01:27:33;;;;;;;1.58;1.30;;;;;;;;;;5038267;28;20684;-86
2023/01/09 01:30:03;;;;;;;1.52;1.42;;;;;;;;;;5047525;28;20049;-86
2023/01/09 01:32:31;;;;;;;5.43;1.63;;;;;;;;;;5046120;28;20056;-86
2023/01/09 01:35:06;;;;;;;4.68;1.33;;;;;;;;;;5062564;28;20445;-85
2023/01/09 01:38:19;;;;;;;1.65;1.30;;;;;;;;;;5051121;28;20064;-86
2023/01/09 01:40:53;;;;;;;2.28;1.50;;;;;;;;;;5057755;28;20044;-85
2023/01/09 01:43:21;;;;;;;8.43;1.25;;;;;;;;;;5052419;28;20421;-86
2023/01/09 01:45:51;;;;;;;2.45;1.30;;;;;;;;;;5053975;28;20056;-86
2023/01/09 01:48:21;;;;;;;3.92;1.90;;;;;;;;;;5054977;28;20037;-86
2023/01/09 01:50:51;;;;;;;0.80;0.80;;;;;;;;;;5049968;28;20051;-86
2023/01/09 01:53:22;;;;;;;1.38;1.20;;;;;;;;;;5048237;28;20064;-86
2023/01/09 01:55:53;;;;;;;5.80;1.73;;;;;;;;;;5052185;28;20424;-86
2023/01/09 01:58:23;;;;;;;1.38;1.27;;;;;;;;;;5053560;28;20127;-86
2023/01/09 02:00:52;;;;;;;4.40;1.63;;;;;;;;;;5053294;28;20045;-86
2023/01/09 02:03:25;;;;;;;0.70;0.70;;;;;;;;;;5045424;28;20120;-86
2023/01/09 02:05:53;;;;;;;2.33;1.48;;;;;;;;;;5051469;28;20056;-87
2023/01/09 02:08:22;;;;;;;2.65;0.93;;;;;;;;;;5053057;28;20068;-85
2023/01/09 02:10:51;;;;;;;3.42;1.42;;;;;;;;;;5057169;28;20053;-85
2023/01/09 02:13:20;;;;;;;6.82;2.63;;;;;;;;;;5043755;28;20054;-85
2023/01/09 02:15:58;;;;;;;2.25;1.75;;;;;;;;;;5052899;28;20063;-85
2023/01/09 02:18:41;;;;;;;2.08;1.27;;;;;;;;;;5048113;28;20063;-85
2023/01/09 02:21:14;;;;;;;2.25;1.35;;;;;;;;;;5052664;28;20494;-85
2023/01/09 02:24:02;;;;;;;3.90;1.45;;;;;;;;;;5049319;28;20049;-85
2023/01/09 02:26:47;;;;;;;2.05;1.77;;;;;;;;;;5055982;28;20793;-85
2023/01/09 02:29:16;;;;;;;;;;;;;;;;;;5046527;28;20057;-85
2023/01/09 02:31:48;;;;;;;3.10;1.40;;;;;;;;;;5052518;28;19921;-85
2023/01/09 02:34:21;;;;;;;1.42;0.73;;;;;;;;;;5052688;28;20102;-85
2023/01/09 02:36:55;;;;;;;3.28;1.30;;;;;;;;;;5052451;28;20044;-85
2023/01/09 02:39:26;;;;;;;1.75;1.48;;;;;;;;;;5046465;28;20361;-85
2023/01/09 02:41:58;;;;;;;2.45;1.42;;;;;;;;;;5051333;28;20406;-84
2023/01/09 02:44:28;;;;;;;1.33;1.23;;;;;;;;;;5047492;28;20053;-84
2023/01/09 02:47:02;;;;;;;1.73;1.60;;;;;;;;;;5042918;28;20501;-85
2023/01/09 02:49:30;;;;;;;3.97;1.38;;;;;;;;;;5048565;28;20045;-85
2023/01/09 02:52:03;;;;;;;5.43;1.63;;;;;;;;;;5052373;28;20056;-85
2023/01/09 02:54:38;;;;;;;1.40;0.90;;;;;;;;;;5050888;28;20494;-85
2023/01/09 02:57:22;;;;;;;1.73;1.25;;;;;;;;;;5041870;28;20469;-85
2023/01/09 03:00:02;;;;;;;2.20;1.52;;;;;;;;;;5049216;28;20051;-86
2023/01/09 03:02:42;;;;;;;1.52;1.25;;;;;;;;;;5051664;28;20504;-85
2023/01/09 03:05:14;;;;;;;5.45;1.90;;;;;;;;;;5046163;28;20132;-86
2023/01/09 03:07:47;;;;;;;1.15;1.05;;;;;;;;;;5046407;28;20045;-85
2023/01/09 03:10:18;;;;;;;0.65;0.65;;;;;;;;;;5047184;28;20045;-85
2023/01/09 03:12:47;;;;;;;2.83;1.55;;;;;;;;;;5049890;28;20049;-85
2023/01/09 03:15:16;;;;;;;1.02;0.70;;;;;;;;;;5049416;28;20049;-85
2023/01/09 03:17:47;;;;;;;1.80;1.02;;;;;;;;;;5049024;28;20126;-85
2023/01/09 03:20:18;;;;;;;8.60;1.15;;;;;;;;;;5046874;28;20053;-85
2023/01/09 03:22:49;;;;;;;1.73;1.15;;;;;;;;;;5043639;28;20138;-85
2023/01/09 03:25:17;;;;;;;3.17;1.60;;;;;;;;;;5041700;28;20052;-85
2023/01/09 03:27:46;;;;;;;3.60;1.63;;;;;;;;;;5057001;28;20046;-85
2023/01/09 03:30:14;;;;;;;1.20;1.05;;;;;;;;;;5046406;28;20047;-85
2023/01/09 03:32:43;;;;;;;2.13;1.05;;;;;;;;;;5042696;28;20056;-85
2023/01/09 03:35:12;;;;;;;1.10;1.00;;;;;;;;;;5050282;28;20049;-85
2023/01/09 03:37:40;;;;;;;1.52;1.42;;;;;;;;;;5051591;28;20049;-85
2023/01/09 03:40:09;;;;;;;1.63;1.20;;;;;;;;;;5049717;28;20113;-85
2023/01/09 03:42:38;;;;;;;0.95;0.90;;;;;;;;;;5049633;28;20045;-85
2023/01/09 03:45:07;;;;;;;2.05;0.80;;;;;;;;;;5042644;28;20049;-85
2023/01/09 03:47:35;;;;;;;0.73;0.73;;;;;;;;;;5037273;28;20091;-85
2023/01/09 03:50:03;;;;;;;2.05;1.08;;;;;;;;;;5039786;28;20081;-85
2023/01/09 03:52:34;;;;;;;0.60;0.60;;;;;;;;;;5055964;28;20044;-85
2023/01/09 03:55:03;;;;;;;1.70;1.58;;;;;;;;;;5053786;28;20055;-85
2023/01/09 03:57:31;;;;;;;0.80;0.80;;;;;;;;;;5052936;28;20060;-86
2023/01/09 03:59:59;;;;;;;2.42;0.90;;;;;;;;;;5056600;28;20135;-86
2023/01/09 04:02:27;;;;;;;1.38;1.05;;;;;;;;;;5053861;28;20509;-86
2023/01/09 04:04:56;;;;;;;4.70;0.77;;;;;;;;;;5051333;28;20052;-86
2023/01/09 04:07:24;;;;;;;0.93;0.68;;;;;;;;;;5048299;28;20044;-85
2023/01/09 04:09:54;;;;;;;2.92;1.63;;;;;;;;;;5043114;28;20049;-85
2023/01/09 04:12:22;;;;;;;1.77;1.35;;;;;;;;;;5056174;28;20048;-85
2023/01/09 04:14:50;;;;;;;0.88;0.88;;;;;;;;;;5047816;28;20486;-85
2023/01/09 04:17:19;;;;;;;1.48;1.38;;;;;;;;;;5049834;28;20060;-86
2023/01/09 04:19:47;;;;;;;0.90;0.68;;;;;;;;;;5050292;28;20045;-86
2023/01/09 04:22:16;;;;;;;1.13;0.75;;;;;;;;;;5048247;28;20040;-85
2023/01/09 04:24:44;;;;;;;2.70;1.10;;;;;;;;;;5047808;28;20401;-85
2023/01/09 04:27:14;;;;;;;1.58;0.95;;;;;;;;;;5045792;28;20420;-86
2023/01/09 04:29:42;;;;;;;1.42;0.75;;;;;;;;;;5041651;28;20468;-86
2023/01/09 04:32:10;;;;;;;1.77;0.60;;;;;;;;;;5054536;28;20055;-85
2023/01/09 04:34:38;;;;;;;1.63;1.00;;;;;;;;;;5043008;28;20040;-85
2023/01/09 04:37:07;;;;;;;0.75;0.75;;;;;;;;;;5043437;28;20041;-85
2023/01/09 04:39:36;;;;;;;0.52;0.52;;;;;;;;;;5042010;28;20042;-85
2023/01/09 04:42:04;;;;;;;0.40;0.40;;;;;;;;;;5047693;28;20056;-86
2023/01/09 04:44:34;;;;;;;0.98;0.57;;;;;;;;;;5053426;28;20049;-85
2023/01/09 04:47:02;;;;;;;0.47;0.47;;;;;;;;;;5055253;28;20041;-85
2023/01/09 04:49:30;;;;;;;0.30;0.30;;;;;;;;;;5050445;28;20080;-85
2023/01/09 04:51:59;;;;;;;0.47;0.47;;;;;;;;;;5062735;28;20084;-85
2023/01/09 04:54:27;;;;;;;0.40;0.40;;;;;;;;;;5049637;28;20056;-85
2023/01/09 04:56:55;;;;;;;0.45;0.45;;;;;;;;;;5045231;28;20409;-88
2023/01/09 04:59:24;;;;;;;0.40;0.40;;;;;;;;;;5052124;28;20053;-84
2023/01/09 05:01:54;;;;;;;0.90;0.20;;;;;;;;;;5046243;28;20069;-86
2023/01/09 05:04:23;;;;;;;0.68;0.50;;;;;;;;;;5047154;28;20084;-84
2023/01/09 05:06:52;;;;;;;0.20;0.20;;;;;;;;;;5049956;28;20053;-86
2023/01/09 05:09:20;;;;;;;0.17;0.17;;;;;;;;;;5050534;28;20053;-84
2023/01/09 05:11:49;;;;;;;0.10;0.10;;;;;;;;;;5048373;28;20060;-87
2023/01/09 05:14:17;;;;;;;0.10;0.10;;;;;;;;;;5051878;28;20045;-85
2023/01/09 05:16:45;;;;;;;0.50;0.30;;;;;;;;;;5070312;28;20056;-88
2023/01/09 05:19:15;;;;;;;0.10;0.10;;;;;;;;;;5074930;28;20049;-88
2023/01/09 05:21:43;;;;;;;0.10;0.10;;;;;;;;;;5072738;28;20029;-89
2023/01/09 05:24:12;;;;;;;0.30;0.30;;;;;;;;;;5065841;28;20092;-87
2023/01/09 05:26:40;;;;;;;0.10;0.10;;;;;;;;;;5065197;28;20022;-89
2023/01/09 05:29:08;;;;;;;0.10;0.10;;;;;;;;;;5072044;28;20059;-89
2023/01/09 05:31:37;;;;;;;0.15;0.15;;;;;;;;;;5069059;28;20051;-88
2023/01/09 05:34:05;;;;;;;0.15;0.15;;;;;;;;;;5065807;28;20053;-88
2023/01/09 05:36:35;;;;;;;0.10;0.10;;;;;;;;;;5072860;28;20417;-89
2023/01/09 05:39:04;;;;;;;0.10;0.10;;;;;;;;;;5063437;28;20050;-89
2023/01/09 05:41:32;;;;;;;0.47;0.20;;;;;;;;;;5078903;28;20067;-88
2023/01/09 05:44:00;;;;;;;0.30;0.30;;;;;;;;;;5046487;28;20481;-88
2023/01/09 05:46:29;;;;;;;0.20;0.20;;;;;;;;;;5067646;28;20058;-88
2023/01/09 05:48:57;;;;;;;0.20;0.20;;;;;;;;;;5044724;28;20057;-82
2023/01/09 05:51:25;;;;;;;0.10;0.10;;;;;;;;;;5052012;28;20059;-84
2023/01/09 05:53:55;;;;;;;0.10;0.10;;;;;;;;;;5048953;28;20398;-87
2023/01/09 05:56:23;;;;;;;0.13;0.13;;;;;;;;;;5052737;28;20125;-81
2023/01/09 05:58:51;;;;;;;0.10;0.10;;;;;;;;;;5051600;28;20054;-85
2023/01/09 06:01:20;;;;;;;0.08;0.08;;;;;;;;;;5046537;28;20059;-86
2023/01/09 06:03:51;;;;;;;0.10;0.10;;;;;;;;;;5046704;28;20091;-87
2023/01/09 06:06:19;;;;;;;0.10;0.10;;;;;;;;;;5038534;28;20084;-86
2023/01/09 06:08:47;;;;;;;0.10;0.10;;;;;;;;;;5049891;28;20048;-86
2023/01/09 06:11:17;;;;;;;0.10;0.10;;;;;;;;;;5046263;28;20406;-85
2023/01/09 06:13:45;;;;;;;0.10;0.10;;;;;;;;;;5047085;28;20425;-85
2023/01/09 06:16:13;;;;;;;0.10;0.10;;;;;;;;;;5050462;28;20053;-87
2023/01/09 06:18:42;;;;;;;0.10;0.10;;;;;;;;;;5047643;28;20077;-87
2023/01/09 06:21:10;;;;;;;0.15;0.15;;;;;;;;;;5037262;28;20128;-86
2023/01/09 06:23:38;;;;;;;0.00;0.00;;;;;;;;;;5047564;28;20412;-86
2023/01/09 06:26:07;;;;;;;0.10;0.10;;;;;;;;;;5037880;28;20052;-88
2023/01/09 06:28:37;;;;;;;4.57;0.38;;;;;;;;;;5050539;28;20057;-83
2023/01/09 06:31:05;;;;;;;0.10;0.10;;;;;;;;;;5054271;28;20098;-84
2023/01/09 06:33:33;;;;;;;0.10;0.10;;;;;;;;;;5055303;28;20052;-83
2023/01/09 06:39:32;;;;;;;;;;;;;;;;;;5055891;28;20052;-83
2023/01/09 06:42:07;;;;;;;0.10;0.10;;;;;;;;;;5056488;28;19928;-83
2023/01/09 06:44:55;;;;;;;0.05;0.05;;;;;;;;;;5055773;28;20045;-83
2023/01/09 06:47:51;;;;;;;0.43;0.43;;;;;;;;;;5057823;28;20519;-83
2023/01/09 06:56:19;;;;;;;0.20;0.20;;;;;;;;;;5030278;28;20069;-63
2023/01/09 06:58:47;;;;;;;0.05;0.05;;;;;;;;;;5031506;28;20064;-62
2023/01/09 07:01:17;;;;;;;0.08;0.08;;;;;;;;;;5030485;28;20056;-62
2023/01/09 07:03:46;;;;;;;0.10;0.10;;;;;;;;;;5029963;28;20051;-63
2023/01/09 07:06:17;;;;;;;0.10;0.10;;;;;;;;;;5030686;28;21218;-62
2023/01/09 07:08:45;;;;;;;0.10;0.10;;;;;;;;;;5029812;28;20462;-63
2023/01/09 07:11:15;;;;;;;0.10;0.10;;;;;;;;;;5031286;28;20051;-62
2023/01/09 07:13:43;;;;;;;0.10;0.10;;;;;;;;;;5030401;28;20490;-63
2023/01/09 07:16:12;;;;;;;0.10;0.10;;;;;;;;;;5031473;28;20410;-63
2023/01/09 07:18:41;;;;;;;0.10;0.10;;;;;;;;;;5026373;28;20458;-63
2023/01/09 07:21:10;;;;;;;0.20;0.20;;;;;;;;;;5029489;28;20508;-62
2023/01/09 07:23:38;;;;;;;0.10;0.10;;;;;;;;;;5030983;28;20103;-63
2023/01/09 07:26:06;;;;;;;0.10;0.10;;;;;;;;;;5030906;28;20053;-64
2023/01/09 07:28:34;;;;;;;0.10;0.10;;;;;;;;;;5028209;28;20148;-63
2023/01/09 07:31:03;;;;;;;0.10;0.10;;;;;;;;;;5029214;28;20057;-62
2023/01/09 07:33:32;;;;;;;0.08;0.08;;;;;;;;;;5028371;28;20123;-63
2023/01/09 07:36:01;;;;;;;0.10;0.10;;;;;;;;;;5026691;28;20048;-63
2023/01/09 07:38:30;;;;;;;0.10;0.10;;;;;;;;;;5028039;28;20046;-63
2023/01/09 07:40:59;;;;;;;0.10;0.10;;;;;;;;;;5027270;28;20056;-63
2023/01/09 07:43:27;;;;;;;0.10;0.10;;;;;;;;;;5027915;28;20046;-63
2023/01/09 07:45:55;;;;;;;0.10;0.10;;;;;;;;;;5030078;28;20041;-62
2023/01/09 07:48:24;;;;;;;0.10;0.10;;;;;;;;;;5029170;28;20065;-64
2023/01/09 07:50:52;;;;;;;0.10;0.10;;;;;;;;;;5029680;28;20042;-63
2023/01/09 07:53:22;;;;;;;0.10;0.10;;;;;;;;;;5030916;28;20075;-62
2023/01/09 07:55:50;;;;;;;0.10;0.10;;;;;;;;;;5043507;28;20081;-63
2023/01/09 07:58:19;;;;;;;0.20;0.20;;;;;;;;;;5044048;28;20580;-62
2023/01/09 08:00:47;;;;;;;0.28;0.28;;;;;;;;;;5048758;28;20095;-62
2023/01/09 08:03:16;;;;;;;1.42;0.05;;;;;;;;;;5048217;28;20037;-62
2023/01/09 08:05:44;;;;;;;0.30;0.30;;;;;;;;;;5043234;28;20044;-62
2023/01/09 08:08:13;;;;;;;0.10;0.10;;;;;;;;;;5050023;28;20072;-63
2023/01/09 08:10:43;;;;;;;0.10;0.10;;;;;;;;;;5050517;28;20053;-61
2023/01/09 08:13:12;;;;;;;0.10;0.10;;;;;;;;;;5050451;28;20045;-63
2023/01/09 08:15:40;;;;;;;0.00;0.00;;;;;;;;;;5051314;28;20049;-63
2023/01/09 08:18:09;;;;;;;0.10;0.10;;;;;;;;;;5046353;28;20049;-63
2023/01/09 08:20:37;;;;;;;0.13;0.13;;;;;;;;;;5051021;28;20476;-63
2023/01/09 08:23:05;;;;;;;0.10;0.10;;;;;;;;;;5051037;28;20059;-62
2023/01/09 08:25:34;;;;;;;0.10;0.10;;;;;;;;;;5050479;28;20414;-62
2023/01/09 08:28:03;;;;;;;0.10;0.10;;;;;;;;;;5041635;28;20406;-63
2023/01/09 08:30:32;;;;;;;0.10;0.10;;;;;;;;;;5037532;28;20473;-62
2023/01/09 08:33:00;;;;;;;1.00;0.65;;;;;;;;;;5048458;28;20037;-62
2023/01/09 08:35:28;;;;;;;0.00;0.00;;;;;;;;;;5044668;28;20053;-62
2023/01/09 08:37:57;;;;;;;0.10;0.10;;;;;;;;;;5053376;28;20052;-63
2023/01/09 08:40:25;;;;;;;0.10;0.10;;;;;;;;;;5052646;28;20122;-63
2023/01/09 08:48:43;;;;;;;0.32;0.32;;;;;;;;;;5038963;28;20087;-62
2023/01/09 08:51:12;;;;;;;0.10;0.10;;;;;;;;;;5052753;28;20128;-63
2023/01/09 08:53:41;;;;;;;0.32;0.30;;;;;;;;;;5053870;28;20053;-62
2023/01/09 08:56:09;;;;;;;0.10;0.10;;;;;;;;;;5052490;28;20416;-63
2023/01/09 08:58:38;;;;;;;0.10;0.10;;;;;;;;;;5050949;28;20052;-62
2023/01/09 09:01:08;;;;;;;0.10;0.10;;;;;;;;;;5051636;28;20493;-63
2023/01/09 09:03:37;;;;;;;0.10;0.10;;;;;;;;;;5046550;28;20511;-63
2023/01/09 09:06:06;;;;;;;0.40;0.40;;;;;;;;;;5050810;28;20053;-63
2023/01/09 09:08:34;;;;;;;0.88;0.60;;;;;;;;;;5050799;28;20135;-63
2023/01/09 09:11:03;;;;;;;0.10;0.10;;;;;;;;;;5040886;28;20056;-62
2023/01/09 09:13:31;;;;;;;0.10;0.10;;;;;;;;;;5047729;28;20059;-63
2023/01/09 09:16:00;;;;;;;0.15;0.15;;;;;;;;;;5047573;28;20041;-63
2023/01/09 09:18:30;;;;;;;0.20;0.13;;;;;;;;;;5048798;28;20052;-63
2023/01/09 09:20:58;;;;;;;0.10;0.10;;;;;;;;;;5052195;28;20060;-62
2023/01/09 09:23:27;;;;;;;0.10;0.10;;;;;;;;;;5051941;28;20053;-63
2023/01/09 09:25:55;;;;;;;0.10;0.10;;;;;;;;;;5045421;28;20144;-62
2023/01/09 09:28:23;;;;;;;0.10;0.10;;;;;;;;;;5048667;28;20052;-63
2023/01/09 09:30:52;;;;;;;0.10;0.10;;;;;;;;;;5050295;28;20049;-62
2023/01/09 09:33:20;;;;;;;0.30;0.20;;;;;;;;;;5052262;28;20064;-63
2023/01/09 09:35:50;;;;;;;0.10;0.10;;;;;;;;;;5051229;28;20095;-63
2023/01/09 09:38:19;;;;;;;0.10;0.10;;;;;;;;;;5043530;28;20053;-62
2023/01/09 09:41:02;;;;;;;0.88;0.40;;;;;;;;;;5052568;28;20163;-62
2023/01/09 09:46:27;;;;;;;0.60;0.43;;;;;;;;;;5051470;28;20641;-62
2023/01/09 09:48:57;;;;;;;1.55;0.20;;;;;;;;;;5051091;28;20045;-62
2023/01/09 09:51:36;;;;;;;0.10;0.10;;;;;;;;;;5049562;28;20194;-61
2023/01/09 09:54:06;;;;;;;0.10;0.10;;;;;;;;;;5043758;28;20409;-62
2023/01/09 09:56:37;;;;;;;0.28;0.20;;;;;;;;;;5047912;28;20056;-61
2023/01/09 09:59:07;;;;;;;0.20;0.20;;;;;;;;;;5047458;28;20130;-61
2023/01/09 10:01:38;;;;;;;0.10;0.10;;;;;;;;;;5045500;28;20048;-62
2023/01/09 10:04:10;;;;;;;0.10;0.10;;;;;;;;;;5051495;28;20119;-62
2023/01/09 10:06:41;;;;;;;0.10;0.10;;;;;;;;;;5050690;28;20087;-62
2023/01/09 10:09:16;;;;;;;0.10;0.10;;;;;;;;;;5049589;28;20115;-62
2023/01/09 10:11:48;;;;;;;0.10;0.10;;;;;;;;;;5050785;28;20484;-61
2023/01/09 10:14:16;;;;;;;0.10;0.10;;;;;;;;;;5035481;28;20083;-61
2023/01/09 10:17:09;;;;;;;0.10;0.10;;;;;;;;;;5050659;28;20403;-61
2023/01/09 10:19:44;;;;;;;0.10;0.10;;;;;;;;;;5040578;28;20131;-61
2023/01/09 10:22:20;;;;;;;0.10;0.10;;;;;;;;;;5051496;28;20045;-62
2023/01/09 10:24:59;;;;;;;0.30;0.20;;;;;;;;;;5048977;28;20041;-62
2023/01/09 10:27:35;;;;;;;0.85;0.35;;;;;;;;;;5048463;28;20045;-62
2023/01/09 10:30:09;;;;;;;0.10;0.10;;;;;;;;;;5048864;28;20052;-62
2023/01/09 10:32:43;;;;;;;0.13;0.13;;;;;;;;;;5046170;28;20067;-61
2023/01/09 10:35:22;;;;;;;0.22;0.22;;;;;;;;;;5045767;28;20506;-61
2023/01/09 10:37:54;;;;;;;0.13;0.10;;;;;;;;;;5047021;28;20502;-61
2023/01/09 10:40:23;;;;;;;0.03;0.03;;;;;;;;;;5049511;28;20520;-62
2023/01/09 10:42:53;;;;;;;0.10;0.10;;;;;;;;;;5049464;28;20529;-62
2023/01/09 10:45:25;;;;;;;0.10;0.10;;;;;;;;;;5049928;28;20041;-62
2023/01/09 10:47:56;;;;;;;0.20;0.20;;;;;;;;;;5050812;28;20053;-62
2023/01/09 10:50:25;;;;;;;0.17;0.17;;;;;;;;;;5047943;28;20056;-62
2023/01/09 10:52:57;;;;;;;0.00;0.00;;;;;;;;;;5048400;28;20056;-62
2023/01/09 10:55:31;;;;;;;0.10;0.10;;;;;;;;;;5049149;28;20385;-62
2023/01/09 10:58:02;;;;;;;0.30;0.20;;;;;;;;;;5047977;28;20516;-62
2023/01/09 11:00:31;;;;;;;0.40;0.40;;;;;;;;;;5049924;28;20103;-62
2023/01/09 11:02:59;;;;;;;0.05;0.05;;;;;;;;;;5050986;28;20040;-62
2023/01/09 11:05:30;;;;;;;7.32;0.28;;;;;;;;;;5038511;28;20053;-62
2023/01/09 11:08:04;;;;;;;0.20;0.20;;;;;;;;;;5045072;28;20124;-62
2023/01/09 11:10:45;;;;;;;0.20;0.20;;;;;;;;;;5049927;28;20041;-61
2023/01/09 11:13:15;;;;;;;0.10;0.10;;;;;;;;;;5050507;28;20057;-61
2023/01/09 11:15:44;;;;;;;0.10;0.10;;;;;;;;;;5037949;28;20068;-62
2023/01/09 11:18:20;;;;;;;0.30;0.30;;;;;;;;;;5049155;28;20129;-62
2023/01/09 11:20:48;;;;;;;0.32;0.20;;;;;;;;;;5043172;28;20132;-62
2023/01/09 11:23:38;;;;;;;0.22;0.17;;;;;;;;;;5047592;28;20124;-61
2023/01/09 11:26:21;;;;;;;0.10;0.10;;;;;;;;;;5046862;28;20045;-61
2023/01/09 11:29:05;;;;;;;0.65;0.45;;;;;;;;;;5047372;28;20045;-61
2023/01/09 11:31:34;;;;;;;1.25;0.40;;;;;;;;;;5045352;28;20125;-63
2023/01/09 11:34:03;;;;;;;0.10;0.10;;;;;;;;;;5036212;28;20048;-62
2023/01/09 11:36:32;;;;;;;0.10;0.10;;;;;;;;;;5049721;28;20068;-61
2023/01/09 11:39:02;;;;;;;0.10;0.10;;;;;;;;;;5049153;28;20049;-61
2023/01/09 11:41:35;;;;;;;0.10;0.10;;;;;;;;;;5049128;28;20052;-62
2023/01/09 11:44:05;;;;;;;0.10;0.10;;;;;;;;;;5038570;28;20049;-63
2023/01/09 11:46:36;;;;;;;0.30;0.30;;;;;;;;;;5050585;28;20057;-62
2023/01/09 11:49:06;;;;;;;0.20;0.20;;;;;;;;;;5048508;28;20147;-61
2023/01/09 11:51:35;;;;;;;0.22;0.22;;;;;;;;;;5040944;28;20453;-61
2023/01/09 11:54:13;;;;;;;0.10;0.10;;;;;;;;;;5046668;28;20076;-61
2023/01/09 11:56:43;;;;;;;0.10;0.10;;;;;;;;;;5053579;28;20091;-61
2023/01/09 11:59:13;;;;;;;0.10;0.10;;;;;;;;;;5060235;28;20047;-61
2023/01/09 12:01:59;;;;;;;0.10;0.10;;;;;;;;;;5040791;28;20155;-62
2023/01/09 12:04:29;;;;;;;1.45;0.28;;;;;;;;;;5050856;28;20083;-62
2023/01/09 12:07:15;;;;;;;0.10;0.10;;;;;;;;;;5038754;28;20518;-62
2023/01/09 12:09:47;;;;;;;0.10;0.10;;;;;;;;;;5027552;28;20059;-62
2023/01/09 12:12:23;;;;;;;0.10;0.10;;;;;;;;;;5039384;28;20131;-62
2023/01/09 12:14:58;;;;;;;0.15;0.15;;;;;;;;;;5050478;28;20489;-62
2023/01/09 12:17:40;;;;;;;0.30;0.20;;;;;;;;;;5049772;28;20506;-62
2023/01/09 12:20:18;;;;;;;0.40;0.40;;;;;;;;;;5024578;28;20053;-61
2023/01/09 12:22:50;;;;;;;0.10;0.10;;;;;;;;;;5044836;28;20487;-62
2023/01/09 12:25:22;;;;;;;0.20;0.20;;;;;;;;;;5044757;28;20057;-62
2023/01/09 12:28:01;;;;;;;0.10;0.10;;;;;;;;;;5046077;28;20537;-61
2023/01/09 12:30:35;;;;;;;0.90;0.20;;;;;;;;;;5040886;28;20053;-62
2023/01/09 12:33:12;;;;;;;0.20;0.20;;;;;;;;;;5049114;28;20095;-62
2023/01/09 12:35:42;;;;;;;0.10;0.10;;;;;;;;;;5049518;28;20052;-62
2023/01/09 12:38:31;;;;;;;0.00;0.00;;;;;;;;;;5042934;28;20045;-61
2023/01/09 12:41:21;;;;;;;0.10;0.10;;;;;;;;;;5041275;28;20041;-62
2023/01/09 12:43:58;;;;;;;0.10;0.10;;;;;;;;;;5043327;28;20501;-62
2023/01/09 12:46:30;;;;;;;0.20;0.20;;;;;;;;;;5042994;28;20452;-62
2023/01/09 12:49:14;;;;;;;0.00;0.00;;;;;;;;;;5035090;28;20049;-62
2023/01/09 12:51:45;;;;;;;0.73;0.10;;;;;;;;;;5042781;28;20083;-64
2023/01/09 12:54:18;;;;;;;0.05;0.05;;;;;;;;;;5048106;28;20051;-61
2023/01/09 12:56:49;;;;;;;0.10;0.10;;;;;;;;;;5048959;28;20061;-61
2023/01/09 12:59:29;;;;;;;0.10;0.10;;;;;;;;;;5048672;28;20048;-61
2023/01/09 13:02:01;;;;;;;0.38;0.17;;;;;;;;;;5033631;28;20107;-61
2023/01/09 13:04:33;;;;;;;0.10;0.10;;;;;;;;;;5048201;28;20052;-62
2023/01/09 13:07:03;;;;;;;0.10;0.10;;;;;;;;;;5048202;28;20053;-62
2023/01/09 13:09:36;;;;;;;0.03;0.03;;;;;;;;;;5048181;28;20051;-62
2023/01/09 13:12:07;;;;;;;0.05;0.05;;;;;;;;;;5043550;28;20559;-61
2023/01/09 13:14:54;;;;;;;0.00;0.00;;;;;;;;;;5047538;28;20056;-61
2023/01/09 13:17:26;;;;;;;0.10;0.10;;;;;;;;;;5053155;28;20049;-61
2023/01/09 13:19:55;;;;;;;0.15;0.15;;;;;;;;;;5048942;28;20075;-62
2023/01/09 13:22:25;;;;;;;0.10;0.10;;;;;;;;;;5052920;28;20534;-62
2023/01/09 13:25:08;;;;;;;0.10;0.10;;;;;;;;;;5045711;28;20044;-62
2023/01/09 13:27:39;;;;;;;0.05;0.05;;;;;;;;;;5040997;28;20085;-61
2023/01/09 13:30:17;;;;;;;0.10;0.10;;;;;;;;;;5004062;28;20060;-61
2023/01/09 13:32:54;;;;;;;5.72;1.00;;;;;;;;;;5040218;28;20045;-61
2023/01/09 13:35:23;;;;;;;0.10;0.10;;;;;;;;;;5053006;28;20060;-61
2023/01/09 13:37:53;;;;;;;0.20;0.20;;;;;;;;;;5049433;28;20060;-62
2023/01/09 13:40:31;;;;;;;11.40;1.08;;;;;;;;;;5049659;28;20136;-61
2023/01/09 13:43:02;;;;;;;2.63;0.20;;;;;;;;;;5044661;28;20060;-62
2023/01/09 13:45:33;;;;;;;5.18;0.20;;;;;;;;;;5052983;28;20057;-62
2023/01/09 13:48:20;;;;;;;0.28;0.28;;;;;;;;;;5052050;28;20124;-62
2023/01/09 13:50:51;;;;;;;0.13;0.13;;;;;;;;;;5039798;28;20041;-63
2023/01/09 13:53:39;;;;;;;0.10;0.10;;;;;;;;;;5049201;28;20063;-63
2023/01/09 13:56:07;;;;;;;0.25;0.25;;;;;;;;;;5042242;28;20092;-62
2023/01/09 13:58:53;;;;;;;0.13;0.13;;;;;;;;;;5042472;28;20048;-62
2023/01/09 14:01:42;;;;;;;0.15;0.15;;;;;;;;;;5049584;28;20055;-61
2023/01/09 14:04:42;;;;;;;1.00;0.38;;;;;;;;;;5048562;28;20051;-62
2023/01/09 14:07:21;;;;;;;0.10;0.10;;;;;;;;;;5042516;28;20421;-62
2023/01/09 14:09:52;;;;;;;0.25;0.25;;;;;;;;;;5042863;28;20132;-62
2023/01/09 14:12:21;;;;;;;0.10;0.10;;;;;;;;;;5051570;28;20048;-61
2023/01/09 14:14:51;;;;;;;0.20;0.20;;;;;;;;;;5048422;28;20103;-61
2023/01/09 14:17:23;;;;;;;0.20;0.20;;;;;;;;;;5046733;28;20041;-61
2023/01/09 14:19:54;;;;;;;0.10;0.10;;;;;;;;;;5050681;28;20485;-61
2023/01/09 14:22:26;;;;;;;0.32;0.15;;;;;;;;;;5036927;28;20501;-62
2023/01/09 14:24:55;;;;;;;0.10;0.10;;;;;;;;;;5040149;28;20132;-63
2023/01/09 14:27:42;;;;;;;0.40;0.40;;;;;;;;;;5040469;28;20099;-62
2023/01/09 14:30:18;;;;;;;0.10;0.10;;;;;;;;;;5009794;28;20144;-62
2023/01/09 14:32:46;;;;;;;0.10;0.10;;;;;;;;;;5049548;28;20132;-62
2023/01/09 14:35:20;;;;;;;0.13;0.13;;;;;;;;;;5048201;28;20072;-62
2023/01/09 14:37:55;;;;;;;0.10;0.10;;;;;;;;;;5050243;28;20551;-62
2023/01/09 14:40:24;;;;;;;0.10;0.10;;;;;;;;;;5040844;28;20100;-62
2023/01/09 14:42:54;;;;;;;0.20;0.13;;;;;;;;;;5043176;28;20055;-62
2023/01/09 14:45:24;;;;;;;0.38;0.38;;;;;;;;;;5040163;28;20068;-62
2023/01/09 14:47:54;;;;;;;0.13;0.13;;;;;;;;;;5049662;28;20573;-62
2023/01/09 14:50:28;;;;;;;0.20;0.20;;;;;;;;;;5048639;28;20041;-62
2023/01/09 14:53:00;;;;;;;0.10;0.10;;;;;;;;;;5051166;28;20059;-62
2023/01/09 14:55:32;;;;;;;0.20;0.20;;;;;;;;;;5037533;28;20139;-62
2023/01/09 14:58:10;;;;;;;0.20;0.20;;;;;;;;;;5048957;28;20080;-62
2023/01/09 15:00:46;;;;;;;0.10;0.10;;;;;;;;;;5035467;28;20125;-62
2023/01/09 15:03:15;;;;;;;0.15;0.15;;;;;;;;;;5046735;28;20560;-62
2023/01/09 15:05:45;;;;;;;0.10;0.10;;;;;;;;;;5047491;28;20044;-62
2023/01/09 15:08:16;;;;;;;0.10;0.10;;;;;;;;;;5046973;28;20045;-62
2023/01/09 15:10:46;;;;;;;0.10;0.10;;;;;;;;;;5042952;28;20465;-62
2023/01/09 15:13:18;;;;;;;0.20;0.20;;;;;;;;;;5037515;28;20041;-63
2023/01/09 15:15:48;;;;;;;0.10;0.10;;;;;;;;;;5046452;28;20041;-62
2023/01/09 15:18:21;;;;;;;3.00;0.38;;;;;;;;;;5048905;28;20049;-62
2023/01/09 15:20:53;;;;;;;0.98;0.38;;;;;;;;;;5044924;28;20045;-62
2023/01/09 15:23:24;;;;;;;0.20;0.20;;;;;;;;;;5049260;28;20079;-61
2023/01/09 15:25:53;;;;;;;0.10;0.10;;;;;;;;;;5048981;28;20484;-62
2023/01/09 15:28:24;;;;;;;0.00;0.00;;;;;;;;;;5048101;28;20045;-61